Time;durP1;ratioP1;P1;durP2;ratioP2;P2;SDS_P1;SDS_P2;PMS_P1;PMS_P2;Temp;Humidity;BMP_temperature;BMP_pressure;BME280_temperature;BME280_humidity;BME280_pressure;Samples;Min_cycle;Max_cycle;Signal;HPM_P1;HPM_P2
2021/10/27 00:00:05;;;;;;;19.77;12.73;;;;;;;;;;5076573;28;20436;-76
2021/10/27 00:02:33;;;;;;;19.77;12.67;;;;;;;;;;5076523;28;20440;-77
2021/10/27 00:05:00;;;;;;;21.33;13.53;;;;;;;;;;5076697;28;20436;-77
2021/10/27 00:07:27;;;;;;;17.20;12.30;;;;;;;;;;5076461;28;20506;-77
2021/10/27 00:09:55;;;;;;;15.73;13.60;;;;;;;;;;5076292;28;20962;-76
2021/10/27 00:12:22;;;;;;;16.80;11.57;;;;;;;;;;5076390;28;20470;-77
2021/10/27 00:14:50;;;;;;;16.23;12.87;;;;;;;;;;5076422;28;20434;-76
2021/10/27 00:17:18;;;;;;;15.53;12.50;;;;;;;;;;5076826;28;20515;-77
2021/10/27 00:19:45;;;;;;;18.90;12.63;;;;;;;;;;5076965;28;20443;-77
2021/10/27 00:22:12;;;;;;;19.40;12.60;;;;;;;;;;5075899;28;20437;-75
2021/10/27 00:24:39;;;;;;;14.63;11.77;;;;;;;;;;5075735;28;20504;-76
2021/10/27 00:27:07;;;;;;;14.20;12.43;;;;;;;;;;5075695;28;20805;-76
2021/10/27 00:29:34;;;;;;;16.60;13.87;;;;;;;;;;5076094;28;20445;-77
2021/10/27 00:32:03;;;;;;;17.13;13.50;;;;;;;;;;5076060;28;20491;-75
2021/10/27 00:34:30;;;;;;;15.80;12.87;;;;;;;;;;5076004;28;20527;-76
2021/10/27 00:36:57;;;;;;;19.00;14.00;;;;;;;;;;5075897;28;20443;-76
2021/10/27 00:39:25;;;;;;;18.33;14.53;;;;;;;;;;5075906;28;20442;-76
2021/10/27 00:41:52;;;;;;;15.80;13.80;;;;;;;;;;5076227;28;20836;-76
2021/10/27 00:44:21;;;;;;;15.60;13.90;;;;;;;;;;5075793;28;20441;-76
2021/10/27 00:46:49;;;;;;;18.93;14.10;;;;;;;;;;5075427;28;21016;-76
2021/10/27 00:49:17;;;;;;;19.97;15.30;;;;;;;;;;5075426;28;20438;-76
2021/10/27 00:51:44;;;;;;;18.37;15.73;;;;;;;;;;5075379;28;20459;-75
2021/10/27 00:54:12;;;;;;;23.17;16.47;;;;;;;;;;5075934;28;20482;-75
2021/10/27 00:56:39;;;;;;;19.23;15.87;;;;;;;;;;5075723;28;20444;-76
2021/10/27 00:59:06;;;;;;;21.57;17.30;;;;;;;;;;5075465;28;20571;-75
2021/10/27 01:01:34;;;;;;;23.57;16.77;;;;;;;;;;5075513;28;20494;-75
2021/10/27 01:04:01;;;;;;;18.90;15.10;;;;;;;;;;5075355;28;20446;-75
2021/10/27 01:06:30;;;;;;;23.73;17.30;;;;;;;;;;5075356;28;20454;-77
2021/10/27 01:08:57;;;;;;;20.43;16.27;;;;;;;;;;5075369;28;20837;-75
2021/10/27 01:11:24;;;;;;;23.60;16.30;;;;;;;;;;5075675;28;20439;-76
2021/10/27 01:13:52;;;;;;;23.50;17.23;;;;;;;;;;5075140;28;20449;-76
2021/10/27 01:16:20;;;;;;;26.43;17.20;;;;;;;;;;5075085;28;20447;-76
2021/10/27 01:18:47;;;;;;;20.83;16.10;;;;;;;;;;5075032;28;20824;-75
2021/10/27 01:21:15;;;;;;;21.90;16.27;;;;;;;;;;5075123;28;20460;-76
2021/10/27 01:23:43;;;;;;;23.53;16.20;;;;;;;;;;5074929;28;20790;-76
2021/10/27 01:26:10;;;;;;;24.97;18.07;;;;;;;;;;5074994;28;20801;-76
2021/10/27 01:28:41;;;;;;;25.10;19.10;;;;;;;;;;5074952;28;20441;-76
2021/10/27 01:31:08;;;;;;;24.50;16.97;;;;;;;;;;5074982;28;20447;-76
2021/10/27 01:33:35;;;;;;;32.47;17.63;;;;;;;;;;5074508;28;20441;-76
2021/10/27 01:36:03;;;;;;;21.90;17.50;;;;;;;;;;5074447;28;20503;-76
2021/10/27 01:38:32;;;;;;;27.00;18.97;;;;;;;;;;5073993;28;20561;-75
2021/10/27 01:40:59;;;;;;;22.90;19.40;;;;;;;;;;5074531;28;20441;-75
2021/10/27 01:43:26;;;;;;;25.60;17.37;;;;;;;;;;5074290;28;20438;-76
2021/10/27 01:45:53;;;;;;;25.70;18.70;;;;;;;;;;5074312;28;20937;-75
2021/10/27 01:48:20;;;;;;;24.80;17.70;;;;;;;;;;5074522;28;20468;-76
2021/10/27 01:50:48;;;;;;;22.00;17.90;;;;;;;;;;5074723;28;20438;-76
2021/10/27 01:53:15;;;;;;;19.97;17.60;;;;;;;;;;5074435;28;20445;-75
2021/10/27 01:55:44;;;;;;;23.23;18.93;;;;;;;;;;5073906;28;20469;-76
2021/10/27 01:58:11;;;;;;;22.57;18.13;;;;;;;;;;5073904;28;20488;-75
2021/10/27 02:00:38;;;;;;;21.37;17.10;;;;;;;;;;5074362;28;20911;-76
2021/10/27 02:03:05;;;;;;;24.30;18.00;;;;;;;;;;5074294;28;20817;-76
2021/10/27 02:05:32;;;;;;;23.43;18.50;;;;;;;;;;5074428;28;20440;-76
2021/10/27 02:08:00;;;;;;;21.83;18.10;;;;;;;;;;5074130;28;20456;-76
2021/10/27 02:10:27;;;;;;;23.97;19.23;;;;;;;;;;5074163;28;20437;-76
2021/10/27 02:12:56;;;;;;;21.60;17.27;;;;;;;;;;5073784;28;20447;-76
2021/10/27 02:15:23;;;;;;;27.47;19.20;;;;;;;;;;5073710;28;20531;-76
2021/10/27 02:17:50;;;;;;;23.03;18.80;;;;;;;;;;5073919;28;20481;-77
2021/10/27 02:20:17;;;;;;;28.37;19.60;;;;;;;;;;5073995;28;20437;-77
2021/10/27 02:22:45;;;;;;;21.57;18.20;;;;;;;;;;5073642;28;20449;-77
2021/10/27 02:25:12;;;;;;;24.70;19.80;;;;;;;;;;5073625;28;20448;-76
2021/10/27 02:27:40;;;;;;;20.50;17.60;;;;;;;;;;5073664;28;20453;-76
2021/10/27 02:30:09;;;;;;;25.30;20.23;;;;;;;;;;5073552;28;20986;-77
2021/10/27 02:32:36;;;;;;;29.47;21.00;;;;;;;;;;5073535;28;20523;-76
2021/10/27 02:35:03;;;;;;;29.33;19.73;;;;;;;;;;5073475;28;20477;-77
2021/10/27 02:37:30;;;;;;;24.53;19.90;;;;;;;;;;5073806;28;20439;-76
2021/10/27 02:39:57;;;;;;;24.87;21.37;;;;;;;;;;5073404;28;20932;-76
2021/10/27 02:42:25;;;;;;;26.17;21.40;;;;;;;;;;5073734;28;20528;-76
2021/10/27 02:44:52;;;;;;;25.80;20.87;;;;;;;;;;5073964;28;20435;-75
2021/10/27 02:47:21;;;;;;;29.73;21.10;;;;;;;;;;5073349;28;20437;-74
2021/10/27 02:49:48;;;;;;;28.23;22.13;;;;;;;;;;5073504;28;20483;-75
2021/10/27 02:52:16;;;;;;;30.00;22.17;;;;;;;;;;5073605;28;20604;-75
2021/10/27 02:54:44;;;;;;;27.87;22.47;;;;;;;;;;5073638;28;20488;-75
2021/10/27 02:57:11;;;;;;;30.23;23.40;;;;;;;;;;5073566;28;20438;-75
2021/10/27 02:59:38;;;;;;;34.30;22.90;;;;;;;;;;5073473;28;20568;-75
2021/10/27 03:02:05;;;;;;;32.47;23.53;;;;;;;;;;5073496;28;20445;-75
2021/10/27 03:04:34;;;;;;;30.37;23.60;;;;;;;;;;5073433;28;20532;-75
2021/10/27 03:07:01;;;;;;;25.90;20.60;;;;;;;;;;5073459;28;20432;-75
2021/10/27 03:09:28;;;;;;;28.10;22.27;;;;;;;;;;5073159;28;20446;-75
2021/10/27 03:11:56;;;;;;;33.93;24.87;;;;;;;;;;5073621;28;20495;-75
2021/10/27 03:14:23;;;;;;;31.13;24.20;;;;;;;;;;5073470;28;20444;-76
2021/10/27 03:16:50;;;;;;;32.57;23.10;;;;;;;;;;5073057;28;20449;-75
2021/10/27 03:19:17;;;;;;;25.93;22.77;;;;;;;;;;5073447;28;20826;-75
2021/10/27 03:21:46;;;;;;;26.60;22.67;;;;;;;;;;5073324;28;20440;-75
2021/10/27 03:24:14;;;;;;;26.53;22.40;;;;;;;;;;5073045;28;20452;-76
2021/10/27 03:26:42;;;;;;;25.90;22.27;;;;;;;;;;5073493;28;20452;-76
2021/10/27 03:29:10;;;;;;;24.93;21.70;;;;;;;;;;5073604;28;20811;-76
2021/10/27 03:31:37;;;;;;;24.03;18.90;;;;;;;;;;5073232;28;20441;-75
2021/10/27 03:34:04;;;;;;;30.10;22.47;;;;;;;;;;5073528;28;20434;-76
2021/10/27 03:36:31;;;;;;;25.83;22.00;;;;;;;;;;5072851;28;20931;-76
2021/10/27 03:39:00;;;;;;;27.80;21.00;;;;;;;;;;5072847;28;20821;-76
2021/10/27 03:41:27;;;;;;;25.73;21.37;;;;;;;;;;5073481;28;20443;-75
2021/10/27 03:43:55;;;;;;;26.07;21.10;;;;;;;;;;5073165;28;20436;-75
2021/10/27 03:46:22;;;;;;;26.40;20.20;;;;;;;;;;5073125;28;20447;-76
2021/10/27 03:48:49;;;;;;;30.43;23.17;;;;;;;;;;5073116;28;20528;-76
2021/10/27 03:51:17;;;;;;;31.10;22.40;;;;;;;;;;5073033;28;20529;-76
2021/10/27 03:53:44;;;;;;;29.17;21.80;;;;;;;;;;5072873;28;20443;-76
2021/10/27 03:56:13;;;;;;;27.73;22.13;;;;;;;;;;5073229;28;20452;-76
2021/10/27 03:58:41;;;;;;;30.43;21.20;;;;;;;;;;5072869;28;20477;-75
2021/10/27 04:01:08;;;;;;;27.77;22.03;;;;;;;;;;5072945;28;20436;-73
2021/10/27 04:03:35;;;;;;;31.97;23.07;;;;;;;;;;5075490;28;20529;-75
2021/10/27 04:06:02;;;;;;;33.13;23.10;;;;;;;;;;5076531;28;20518;-75
2021/10/27 04:08:30;;;;;;;29.70;23.63;;;;;;;;;;5076806;28;20459;-74
2021/10/27 04:10:57;;;;;;;30.50;23.30;;;;;;;;;;5076744;28;20444;-75
2021/10/27 04:13:25;;;;;;;32.40;23.00;;;;;;;;;;5076083;28;20476;-75
2021/10/27 04:15:53;;;;;;;30.10;22.97;;;;;;;;;;5076047;28;20930;-75
2021/10/27 04:18:20;;;;;;;31.50;23.53;;;;;;;;;;5076477;28;20443;-74
2021/10/27 04:20:47;;;;;;;28.57;22.50;;;;;;;;;;5075957;28;21002;-75
2021/10/27 04:23:14;;;;;;;32.07;23.50;;;;;;;;;;5075840;28;20442;-76
2021/10/27 04:25:41;;;;;;;29.90;23.40;;;;;;;;;;5075788;28;20543;-76
2021/10/27 04:28:09;;;;;;;35.13;23.70;;;;;;;;;;5076033;28;20432;-75
2021/10/27 04:30:37;;;;;;;36.70;24.07;;;;;;;;;;5076029;28;20466;-76
2021/10/27 04:33:04;;;;;;;35.20;23.60;;;;;;;;;;5074543;28;20483;-75
2021/10/27 04:35:32;;;;;;;28.50;23.80;;;;;;;;;;5075737;28;20808;-74
2021/10/27 04:37:59;;;;;;;29.97;23.70;;;;;;;;;;5075462;28;20498;-74
2021/10/27 04:40:27;;;;;;;32.97;23.07;;;;;;;;;;5075781;28;20483;-73
2021/10/27 04:42:54;;;;;;;25.93;20.47;;;;;;;;;;5075538;28;20471;-74
2021/10/27 04:45:22;;;;;;;31.07;23.17;;;;;;;;;;5075409;28;20443;-76
2021/10/27 04:47:50;;;;;;;24.67;20.13;;;;;;;;;;5075439;28;20441;-75
2021/10/27 04:50:17;;;;;;;27.47;18.73;;;;;;;;;;5075651;28;20458;-74
2021/10/27 04:52:45;;;;;;;25.87;20.77;;;;;;;;;;5075135;28;20471;-74
2021/10/27 04:55:12;;;;;;;28.27;20.23;;;;;;;;;;5075376;28;20475;-74
2021/10/27 04:57:39;;;;;;;23.87;18.27;;;;;;;;;;5075003;28;20448;-75
2021/10/27 05:00:07;;;;;;;27.60;19.33;;;;;;;;;;5075330;28;20820;-74
2021/10/27 05:02:34;;;;;;;19.83;17.83;;;;;;;;;;5075268;28;20440;-75
2021/10/27 05:05:02;;;;;;;23.47;17.03;;;;;;;;;;5074862;28;20441;-76
2021/10/27 05:07:30;;;;;;;23.57;17.70;;;;;;;;;;5075217;28;20433;-76
2021/10/27 05:09:58;;;;;;;23.80;17.77;;;;;;;;;;5075477;28;20448;-77
2021/10/27 05:12:25;;;;;;;21.60;17.83;;;;;;;;;;5075782;28;20428;-77
2021/10/27 05:14:52;;;;;;;25.60;17.60;;;;;;;;;;5075135;28;20486;-76
2021/10/27 05:17:19;;;;;;;21.93;15.67;;;;;;;;;;5075205;28;20456;-77
2021/10/27 05:19:47;;;;;;;23.40;18.40;;;;;;;;;;5074709;28;20468;-77
2021/10/27 05:22:18;;;;;;;22.10;14.70;;;;;;;;;;5075019;28;20439;-76
2021/10/27 05:24:45;;;;;;;19.20;15.40;;;;;;;;;;5075247;28;20450;-77
2021/10/27 05:27:14;;;;;;;21.20;14.13;;;;;;;;;;5074833;28;20468;-78
2021/10/27 05:29:47;;;;;;;19.23;13.90;;;;;;;;;;5074711;28;20449;-77
2021/10/27 05:32:21;;;;;;;15.90;12.83;;;;;;;;;;5074187;28;20434;-76
2021/10/27 05:34:49;;;;;;;12.93;11.53;;;;;;;;;;5073802;28;20468;-76
2021/10/27 05:37:18;;;;;;;17.37;13.67;;;;;;;;;;5074066;28;20470;-74
2021/10/27 05:39:45;;;;;;;18.30;12.30;;;;;;;;;;5074541;28;20515;-77
2021/10/27 05:42:18;;;;;;;16.13;11.70;;;;;;;;;;5074265;28;20526;-82
2021/10/27 05:44:47;;;;;;;17.27;11.47;;;;;;;;;;5074230;28;20479;-82
2021/10/27 05:47:15;;;;;;;13.43;11.63;;;;;;;;;;5073998;28;20445;-82
2021/10/27 05:49:48;;;;;;;17.63;11.20;;;;;;;;;;5074318;28;20918;-82
2021/10/27 05:57:45;;;;;;;13.00;9.67;;;;;;;;;;5073464;28;20456;-82
2021/10/27 06:00:12;;;;;;;12.17;9.10;;;;;;;;;;5073806;28;20526;-83
2021/10/27 06:02:40;;;;;;;17.63;9.50;;;;;;;;;;5073542;28;20451;-83
2021/10/27 06:05:08;;;;;;;12.03;9.70;;;;;;;;;;5074055;28;20444;-83
2021/10/27 06:07:35;;;;;;;18.43;10.00;;;;;;;;;;5073983;28;20449;-82
2021/10/27 06:10:04;;;;;;;13.30;10.00;;;;;;;;;;5073714;28;20866;-83
2021/10/27 06:12:31;;;;;;;11.77;9.33;;;;;;;;;;5073342;28;21006;-83
2021/10/27 06:14:58;;;;;;;11.57;8.90;;;;;;;;;;5073834;28;20519;-82
2021/10/27 06:17:26;;;;;;;13.30;8.30;;;;;;;;;;5074094;28;20775;-82
2021/10/27 06:19:54;;;;;;;11.93;8.60;;;;;;;;;;5073268;28;20509;-84
2021/10/27 06:22:22;;;;;;;16.57;9.23;;;;;;;;;;5073635;28;21004;-83
2021/10/27 06:24:49;;;;;;;9.57;8.43;;;;;;;;;;5072928;28;20531;-83
2021/10/27 06:27:19;;;;;;;10.13;9.00;;;;;;;;;;5073239;28;20466;-83
2021/10/27 06:29:49;;;;;;;10.10;8.40;;;;;;;;;;5073257;28;21000;-85
2021/10/27 06:32:25;;;;;;;15.40;8.63;;;;;;;;;;5073591;28;20495;-83
2021/10/27 06:34:56;;;;;;;11.73;7.67;;;;;;;;;;5073748;28;20429;-83
2021/10/27 06:37:36;;;;;;;13.23;7.77;;;;;;;;;;5073234;28;20432;-84
2021/10/27 06:48:19;;;;;;;17.47;7.73;;;;;;;;;;5073426;28;20463;-84
2021/10/27 06:50:47;;;;;;;20.13;8.27;;;;;;;;;;5073261;28;20946;-83
2021/10/27 06:53:14;;;;;;;18.50;8.33;;;;;;;;;;5073176;28;20930;-83
2021/10/27 06:55:41;;;;;;;11.97;7.80;;;;;;;;;;5073123;28;20525;-83
2021/10/27 06:58:11;;;;;;;11.93;7.10;;;;;;;;;;5074112;28;20448;-83
2021/10/27 07:00:41;;;;;;;11.10;6.63;;;;;;;;;;5073359;28;20483;-83
2021/10/27 07:03:31;;;;;;;12.53;8.33;;;;;;;;;;5073613;28;20452;-83
2021/10/27 07:17:07;;;;;;;12.10;7.00;;;;;;;;;;5073360;28;20394;-83
2021/10/27 07:19:34;;;;;;;9.80;6.27;;;;;;;;;;5073231;28;20563;-83
2021/10/27 07:22:01;;;;;;;8.83;6.60;;;;;;;;;;5073492;28;20452;-81
2021/10/27 07:24:29;;;;;;;8.67;7.07;;;;;;;;;;5073067;28;20539;-82
2021/10/27 07:26:59;;;;;;;8.13;6.47;;;;;;;;;;5073200;28;20549;-83
2021/10/27 07:29:27;;;;;;;16.33;7.73;;;;;;;;;;5073175;28;20518;-83
2021/10/27 07:31:55;;;;;;;8.00;5.97;;;;;;;;;;5073073;28;20438;-82
2021/10/27 07:34:30;;;;;;;7.43;5.90;;;;;;;;;;5072961;28;20433;-82
2021/10/27 07:40:04;;;;;;;10.87;7.43;;;;;;;;;;5076629;28;20533;-83
2021/10/27 07:42:32;;;;;;;8.37;6.50;;;;;;;;;;5077208;28;20431;-84
2021/10/27 07:45:00;;;;;;;9.60;6.30;;;;;;;;;;5076624;28;20480;-82
2021/10/27 07:47:28;;;;;;;15.57;6.57;;;;;;;;;;5076759;28;20531;-84
2021/10/27 07:49:55;;;;;;;11.20;6.70;;;;;;;;;;5076128;28;21018;-84
2021/10/27 07:52:22;;;;;;;8.30;6.33;;;;;;;;;;5076250;28;20441;-84
2021/10/27 07:54:49;;;;;;;10.10;6.10;;;;;;;;;;5076155;28;21010;-84
2021/10/27 07:57:17;;;;;;;7.37;5.83;;;;;;;;;;5076307;28;20528;-84
2021/10/27 07:59:44;;;;;;;12.70;5.90;;;;;;;;;;5076636;28;20473;-83
2021/10/27 08:02:12;;;;;;;11.77;5.90;;;;;;;;;;5076324;28;20437;-83
2021/10/27 08:04:40;;;;;;;7.80;6.27;;;;;;;;;;5076161;28;20935;-83
2021/10/27 08:07:08;;;;;;;10.70;5.50;;;;;;;;;;5076435;28;20437;-83
2021/10/27 08:09:35;;;;;;;14.07;7.00;;;;;;;;;;5076936;28;20453;-84
2021/10/27 08:12:02;;;;;;;22.93;7.40;;;;;;;;;;5076072;28;20444;-83
2021/10/27 08:14:29;;;;;;;12.20;5.80;;;;;;;;;;5076234;28;20549;-83
2021/10/27 08:16:57;;;;;;;8.10;6.47;;;;;;;;;;5075927;28;20944;-83
2021/10/27 08:19:25;;;;;;;10.67;5.47;;;;;;;;;;5076535;28;20456;-83
2021/10/27 08:21:57;;;;;;;10.07;6.00;;;;;;;;;;5075876;28;20451;-83
2021/10/27 08:24:25;;;;;;;10.43;5.03;;;;;;;;;;5076430;28;20455;-83
2021/10/27 08:26:55;;;;;;;10.10;5.80;;;;;;;;;;5076287;28;20444;-83
2021/10/27 08:29:26;;;;;;;9.30;5.63;;;;;;;;;;5076173;28;20495;-83
2021/10/27 08:31:56;;;;;;;14.87;5.10;;;;;;;;;;5075580;28;20457;-83
2021/10/27 08:34:36;;;;;;;11.73;5.60;;;;;;;;;;5076029;28;20922;-83
2021/10/27 08:37:03;;;;;;;7.20;5.30;;;;;;;;;;5076370;28;20437;-84
2021/10/27 08:39:30;;;;;;;9.00;5.37;;;;;;;;;;5075622;28;20797;-83
2021/10/27 08:41:57;;;;;;;9.17;5.77;;;;;;;;;;5076501;28;20866;-84
2021/10/27 08:44:25;;;;;;;6.53;5.10;;;;;;;;;;5075471;28;20433;-83
2021/10/27 08:46:52;;;;;;;14.70;6.00;;;;;;;;;;5075743;28;20437;-83
2021/10/27 08:49:20;;;;;;;7.70;5.57;;;;;;;;;;5075044;28;20530;-83
2021/10/27 08:51:51;;;;;;;7.80;4.83;;;;;;;;;;5075368;28;20457;-84
2021/10/27 08:54:18;;;;;;;14.30;6.40;;;;;;;;;;5075508;28;20469;-84
2021/10/27 08:56:46;;;;;;;9.20;5.30;;;;;;;;;;5075535;28;20519;-84
2021/10/27 08:59:19;;;;;;;8.70;5.17;;;;;;;;;;5075513;28;20453;-84
2021/10/27 09:02:07;;;;;;;7.10;5.10;;;;;;;;;;5075088;28;20465;-84
2021/10/27 09:04:55;;;;;;;9.97;4.23;;;;;;;;;;5075384;28;20755;-84
2021/10/27 09:07:30;;;;;;;9.33;4.87;;;;;;;;;;5075550;28;20435;-84
2021/10/27 09:10:33;;;;;;;9.77;4.70;;;;;;;;;;5075263;28;20517;-84
2021/10/27 09:15:58;;;;;;;9.77;5.03;;;;;;;;;;5075027;28;20759;-85
2021/10/27 09:56:11;;;;;;;10.10;4.30;;;;;;;;;;5012693;28;20469;-85
2021/10/27 10:04:16;;;;;;;11.30;4.13;;;;;;;;;;5074208;28;20500;-84
2021/10/27 10:06:45;;;;;;;6.47;4.30;;;;;;;;;;5073864;28;20469;-84
2021/10/27 10:09:13;;;;;;;6.70;3.73;;;;;;;;;;5073696;28;20446;-84
2021/10/27 10:11:40;;;;;;;5.17;3.97;;;;;;;;;;5074935;28;20440;-85
2021/10/27 10:14:13;;;;;;;5.73;3.43;;;;;;;;;;5074059;28;20489;-85
2021/10/27 10:16:43;;;;;;;8.27;4.50;;;;;;;;;;5074599;28;20415;-85
2021/10/27 10:19:11;;;;;;;8.13;4.20;;;;;;;;;;5073739;28;20477;-85
2021/10/27 10:21:41;;;;;;;5.07;3.67;;;;;;;;;;5073810;28;20476;-85
2021/10/27 10:24:27;;;;;;;4.80;4.03;;;;;;;;;;5073673;28;20443;-85
2021/10/27 10:26:55;;;;;;;7.50;3.83;;;;;;;;;;5073971;28;20442;-85
2021/10/27 10:29:38;;;;;;;8.70;4.27;;;;;;;;;;5073504;28;20454;-85
2021/10/27 10:32:21;;;;;;;6.90;5.10;;;;;;;;;;5074708;28;20511;-85
2021/10/27 10:34:53;;;;;;;3.93;3.63;;;;;;;;;;5073491;28;20454;-83
2021/10/27 10:37:31;;;;;;;4.87;3.70;;;;;;;;;;5073501;28;20916;-83
2021/10/27 10:40:02;;;;;;;4.47;4.03;;;;;;;;;;5073823;28;20439;-83
2021/10/27 10:43:03;;;;;;;8.13;4.60;;;;;;;;;;5074425;28;20423;-83
2021/10/27 10:45:50;;;;;;;6.20;4.00;;;;;;;;;;5073904;28;20434;-84
2021/10/27 10:57:20;;;;;;;7.80;3.73;;;;;;;;;;5016635;28;20433;-83
2021/10/27 11:00:35;;;;;;;6.97;3.80;;;;;;;;;;5073108;28;20441;-83
2021/10/27 11:23:12;;;;;;;5.90;3.60;;;;;;;;;;5077130;28;20400;-84
2021/10/27 11:25:52;;;;;;;5.83;3.33;;;;;;;;;;5077143;28;20551;-83
2021/10/27 11:39:46;;;;;;;5.60;3.80;;;;;;;;;;5076960;28;20420;-84
2021/10/27 11:45:21;;;;;;;7.20;4.00;;;;;;;;;;5074650;28;20909;-83
2021/10/27 11:47:50;;;;;;;5.60;3.90;;;;;;;;;;5077405;28;20427;-84
2021/10/27 11:50:21;;;;;;;10.77;3.40;;;;;;;;;;5076520;28;20460;-85
2021/10/27 11:52:50;;;;;;;5.33;3.47;;;;;;;;;;5076793;28;20471;-85
2021/10/27 11:55:18;;;;;;;5.13;4.20;;;;;;;;;;5076863;28;20516;-84
2021/10/27 11:57:54;;;;;;;7.23;3.83;;;;;;;;;;5076680;28;20439;-85
2021/10/27 12:00:31;;;;;;;7.20;3.67;;;;;;;;;;5076318;28;20438;-84
2021/10/27 12:03:06;;;;;;;7.60;3.53;;;;;;;;;;5077577;28;20429;-83
2021/10/27 12:05:39;;;;;;;6.33;3.90;;;;;;;;;;5076955;28;20463;-70
2021/10/27 12:08:23;;;;;;;5.63;3.90;;;;;;;;;;5077079;28;20460;-74
2021/10/27 12:11:11;;;;;;;5.60;4.60;;;;;;;;;;5076431;28;20465;-74
2021/10/27 12:19:15;;;;;;;4.10;3.70;;;;;;;;;;5062778;28;20464;-74
2021/10/27 12:21:47;;;;;;;6.23;3.50;;;;;;;;;;5076114;28;20571;-74
2021/10/27 12:24:16;;;;;;;4.10;3.00;;;;;;;;;;5075009;28;21019;-74
2021/10/27 12:26:44;;;;;;;5.90;3.33;;;;;;;;;;5073363;28;20544;-74
2021/10/27 12:29:15;;;;;;;4.10;3.03;;;;;;;;;;5075606;28;20521;-74
2021/10/27 12:31:42;;;;;;;5.53;2.97;;;;;;;;;;5075790;28;20433;-74
2021/10/27 12:34:26;;;;;;;4.63;3.27;;;;;;;;;;5075581;28;20434;-74
2021/10/27 12:36:56;;;;;;;5.83;3.40;;;;;;;;;;5075400;28;20496;-74
2021/10/27 12:39:26;;;;;;;7.03;3.00;;;;;;;;;;5075800;28;20446;-73
2021/10/27 12:42:02;;;;;;;9.80;4.33;;;;;;;;;;5075165;28;20482;-74
2021/10/27 12:44:31;;;;;;;4.37;3.10;;;;;;;;;;5076196;28;20447;-73
2021/10/27 12:47:08;;;;;;;3.07;2.63;;;;;;;;;;5075227;28;20444;-73
2021/10/27 12:49:36;;;;;;;3.43;2.87;;;;;;;;;;5075608;28;20478;-74
2021/10/27 12:52:18;;;;;;;5.07;2.93;;;;;;;;;;5075112;28;20446;-74
2021/10/27 12:54:45;;;;;;;4.20;2.67;;;;;;;;;;5074914;28;20480;-73
2021/10/27 12:57:12;;;;;;;3.63;2.40;;;;;;;;;;5073164;28;20939;-75
2021/10/27 12:59:41;;;;;;;3.97;2.47;;;;;;;;;;5075259;28;20445;-74
2021/10/27 13:02:19;;;;;;;5.77;3.33;;;;;;;;;;5074992;28;20560;-74
2021/10/27 13:04:53;;;;;;;9.70;2.87;;;;;;;;;;5075063;28;20456;-74
2021/10/27 13:07:23;;;;;;;3.77;2.33;;;;;;;;;;5074591;28;20456;-73
2021/10/27 13:10:20;;;;;;;6.50;2.97;;;;;;;;;;5075071;28;20452;-75
2021/10/27 13:13:01;;;;;;;5.17;4.53;;;;;;;;;;5075888;28;20440;-73
2021/10/27 13:15:54;;;;;;;3.57;3.10;;;;;;;;;;5075308;28;20428;-74
2021/10/27 13:29:40;;;;;;;7.67;3.23;;;;;;;;;;5067298;28;20446;-73
2021/10/27 13:32:12;;;;;;;8.70;3.80;;;;;;;;;;5074906;28;20480;-75
2021/10/27 13:34:40;;;;;;;5.63;3.60;;;;;;;;;;5074670;28;20430;-74
2021/10/27 13:37:08;;;;;;;9.43;3.73;;;;;;;;;;5073970;28;20453;-74
2021/10/27 13:39:36;;;;;;;12.00;3.60;;;;;;;;;;5074323;28;20444;-74
2021/10/27 13:42:08;;;;;;;7.20;3.40;;;;;;;;;;5074428;28;20493;-74
2021/10/27 13:44:40;;;;;;;5.73;3.90;;;;;;;;;;5074695;28;20461;-74
2021/10/27 13:47:22;;;;;;;21.03;12.67;;;;;;;;;;5073823;28;20449;-74
2021/10/27 13:57:41;;;;;;;6.23;3.83;;;;;;;;;;5074844;28;20423;-74
2021/10/27 14:06:40;;;;;;;7.17;4.10;;;;;;;;;;5073519;28;20762;-75
2021/10/27 14:09:13;;;;;;;6.40;3.90;;;;;;;;;;5074476;28;20426;-75
2021/10/27 14:11:49;;;;;;;6.87;4.03;;;;;;;;;;5074286;28;20513;-74
2021/10/27 14:14:21;;;;;;;5.80;4.13;;;;;;;;;;5074837;28;20729;-74
2021/10/27 14:17:08;;;;;;;4.87;4.33;;;;;;;;;;5073494;28;20809;-74
2021/10/27 14:19:49;;;;;;;7.10;4.13;;;;;;;;;;5074250;28;20479;-74
2021/10/27 14:47:35;;;;;;;5.03;3.77;;;;;;;;;;5072475;28;20977;-74
2021/10/27 15:20:23;;;;;;;6.33;4.53;;;;;;;;;;5072702;28;20461;-74
2021/10/27 15:23:02;;;;;;;6.90;4.47;;;;;;;;;;5073020;28;20485;-73
2021/10/27 15:28:43;;;;;;;6.77;3.80;;;;;;;;;;5047141;28;20490;-74
2021/10/27 15:31:24;;;;;;;8.87;3.80;;;;;;;;;;5071077;28;20450;-74
2021/10/27 15:36:54;;;;;;;7.73;4.40;;;;;;;;;;5056868;28;20511;-73
2021/10/27 15:42:33;;;;;;;5.40;4.10;;;;;;;;;;5010646;28;20472;-73
2021/10/27 15:50:45;;;;;;;5.13;3.93;;;;;;;;;;5072348;28;20407;-74
2021/10/27 15:53:12;;;;;;;5.77;3.70;;;;;;;;;;5072962;28;20913;-74
2021/10/27 15:55:39;;;;;;;8.00;3.97;;;;;;;;;;5071520;28;20484;-75
2021/10/27 15:58:08;;;;;;;6.70;5.23;;;;;;;;;;5073263;28;20957;-75
2021/10/27 16:00:38;;;;;;;10.23;5.43;;;;;;;;;;5074561;28;20459;-74
2021/10/27 16:03:06;;;;;;;7.33;4.47;;;;;;;;;;5076813;28;20462;-74
2021/10/27 16:05:34;;;;;;;5.90;4.23;;;;;;;;;;5075796;28;20927;-76
2021/10/27 16:08:01;;;;;;;6.17;5.40;;;;;;;;;;5076308;28;20444;-75
2021/10/27 16:10:29;;;;;;;7.87;4.23;;;;;;;;;;5075942;28;20484;-75
2021/10/27 16:12:56;;;;;;;6.47;4.30;;;;;;;;;;5076427;28;20460;-75
2021/10/27 16:15:34;;;;;;;5.83;4.43;;;;;;;;;;5076142;28;20451;-74
2021/10/27 16:18:02;;;;;;;7.10;3.93;;;;;;;;;;5075813;28;20791;-74
2021/10/27 16:20:29;;;;;;;9.07;4.27;;;;;;;;;;5076144;28;20439;-74
2021/10/27 16:22:56;;;;;;;13.10;4.40;;;;;;;;;;5075775;28;20550;-74
2021/10/27 16:25:23;;;;;;;6.17;3.20;;;;;;;;;;5075307;28;20794;-76
2021/10/27 16:27:51;;;;;;;8.30;4.90;;;;;;;;;;5076125;28;20527;-74
2021/10/27 16:30:19;;;;;;;8.63;4.63;;;;;;;;;;5074792;28;20449;-73
2021/10/27 16:32:48;;;;;;;8.80;4.93;;;;;;;;;;5074065;28;20455;-73
2021/10/27 16:35:15;;;;;;;5.57;4.60;;;;;;;;;;5075150;28;20443;-74
2021/10/27 16:37:43;;;;;;;12.73;5.13;;;;;;;;;;5075794;28;20539;-75
2021/10/27 16:40:11;;;;;;;11.83;4.63;;;;;;;;;;5075569;28;20451;-74
2021/10/27 16:42:39;;;;;;;10.87;4.80;;;;;;;;;;5075453;28;20485;-74
2021/10/27 16:45:07;;;;;;;7.40;4.60;;;;;;;;;;5075416;28;21025;-74
2021/10/27 16:47:34;;;;;;;6.57;4.30;;;;;;;;;;5075359;28;20537;-74
2021/10/27 16:50:03;;;;;;;8.60;5.90;;;;;;;;;;5075144;28;20448;-74
2021/10/27 16:52:30;;;;;;;4.33;3.93;;;;;;;;;;5075482;28;20447;-73
2021/10/27 16:54:58;;;;;;;8.27;4.80;;;;;;;;;;5075808;28;20573;-74
2021/10/27 16:57:26;;;;;;;7.07;4.67;;;;;;;;;;5075257;28;20520;-74
2021/10/27 16:59:53;;;;;;;6.40;4.73;;;;;;;;;;5075489;28;20449;-75
2021/10/27 17:02:20;;;;;;;11.83;5.37;;;;;;;;;;5075470;28;20472;-75
2021/10/27 17:04:48;;;;;;;5.20;4.40;;;;;;;;;;5075009;28;20928;-74
2021/10/27 17:07:21;;;;;;;7.93;5.20;;;;;;;;;;5075093;28;20523;-76
2021/10/27 17:09:49;;;;;;;6.77;4.93;;;;;;;;;;5074894;28;20431;-74
2021/10/27 17:12:16;;;;;;;11.10;6.90;;;;;;;;;;5075039;28;20471;-74
2021/10/27 17:14:44;;;;;;;9.20;5.93;;;;;;;;;;5075276;28;20442;-73
2021/10/27 17:17:11;;;;;;;8.43;6.03;;;;;;;;;;5075160;28;20476;-74
2021/10/27 17:19:38;;;;;;;10.17;5.20;;;;;;;;;;5074957;28;20439;-73
2021/10/27 17:22:07;;;;;;;8.80;5.40;;;;;;;;;;5074802;28;20978;-74
2021/10/27 17:24:36;;;;;;;9.97;6.30;;;;;;;;;;5074639;28;20532;-74
2021/10/27 17:27:03;;;;;;;7.97;5.50;;;;;;;;;;5075127;28;20439;-74
2021/10/27 17:29:31;;;;;;;7.00;5.40;;;;;;;;;;5075003;28;20448;-75
2021/10/27 17:31:58;;;;;;;8.33;4.90;;;;;;;;;;5074960;28;20544;-74
2021/10/27 17:34:26;;;;;;;8.80;5.83;;;;;;;;;;5075282;28;20530;-74
2021/10/27 17:36:53;;;;;;;10.73;5.33;;;;;;;;;;5074487;28;20471;-74
2021/10/27 17:39:21;;;;;;;43.77;37.23;;;;;;;;;;5074625;28;20529;-74
2021/10/27 17:41:50;;;;;;;9.60;6.90;;;;;;;;;;5075074;28;20639;-73
2021/10/27 17:44:17;;;;;;;10.40;6.13;;;;;;;;;;5074773;28;20433;-76
2021/10/27 17:46:46;;;;;;;14.07;5.97;;;;;;;;;;5074643;28;20934;-74
2021/10/27 17:49:19;;;;;;;8.03;6.40;;;;;;;;;;5074243;28;20499;-74
2021/10/27 17:51:57;;;;;;;6.43;5.80;;;;;;;;;;5074235;28;20466;-74
2021/10/27 17:59:53;;;;;;;7.47;6.37;;;;;;;;;;5040903;28;20759;-74
2021/10/27 18:02:21;;;;;;;8.70;6.53;;;;;;;;;;5074314;28;20495;-74
2021/10/27 18:04:48;;;;;;;6.97;6.20;;;;;;;;;;5074137;28;20496;-73
2021/10/27 18:07:20;;;;;;;13.40;10.90;;;;;;;;;;5074027;28;20486;-75
2021/10/27 18:09:47;;;;;;;13.87;7.80;;;;;;;;;;5074507;28;20885;-74
2021/10/27 18:12:20;;;;;;;8.00;6.13;;;;;;;;;;5071834;28;20544;-75
2021/10/27 18:14:47;;;;;;;8.53;6.30;;;;;;;;;;5073735;28;20472;-74
2021/10/27 18:17:18;;;;;;;7.10;6.40;;;;;;;;;;5073940;28;20449;-72
2021/10/27 18:19:52;;;;;;;12.13;6.30;;;;;;;;;;5073587;28;20421;-72
2021/10/27 18:22:24;;;;;;;14.50;8.03;;;;;;;;;;5072971;28;20470;-73
2021/10/27 18:25:08;;;;;;;7.43;6.77;;;;;;;;;;5073377;28;20465;-73
2021/10/27 18:27:55;;;;;;;12.43;6.50;;;;;;;;;;5073499;28;20437;-72
2021/10/27 18:38:43;;;;;;;7.30;6.60;;;;;;;;;;5073449;28;20446;-73